createdAt,value
2023-04-06T00:00:01.263Z,7.54
2023-04-06T00:15:01.939Z,7.44
2023-04-06T00:30:01.682Z,7.43
2023-04-06T00:45:01.364Z,7.34
2023-04-06T01:00:02.055Z,7.21
2023-04-06T01:15:01.719Z,7.01
2023-04-06T01:30:01.408Z,6.97
2023-04-06T01:45:02.079Z,6.94
2023-04-06T02:00:01.768Z,6.97
2023-04-06T02:15:01.476Z,7
2023-04-06T02:30:01.212Z,6.9
2023-04-06T02:45:01.955Z,6.7
2023-04-06T03:00:01.750Z,6.67
2023-04-06T03:15:01.448Z,6.56
2023-04-06T03:30:01.252Z,6.53
2023-04-06T03:45:01.915Z,6.55
2023-04-06T04:00:01.648Z,6.37
2023-04-06T04:15:01.722Z,5.69
2023-04-06T04:30:01.868Z,5.39
2023-04-06T04:45:01.620Z,4.73
2023-04-06T05:00:01.478Z,4.47
2023-04-06T05:15:02.194Z,4.58
2023-04-06T05:30:01.841Z,4.94
2023-04-06T05:45:02.460Z,5.21
2023-04-06T06:00:02.220Z,5.88
2023-04-06T06:15:01.933Z,6.52
2023-04-06T06:30:01.577Z,7.11
2023-04-06T06:45:02.230Z,7.73
2023-04-06T07:00:01.870Z,8.75
2023-04-06T07:15:01.538Z,15.62
2023-04-06T07:30:02.211Z,19.25
2023-04-06T07:45:01.822Z,23.11
2023-04-06T08:00:01.402Z,25.62
2023-04-06T08:15:02.038Z,25.42
2023-04-06T08:30:01.706Z,28.3
2023-04-06T08:45:02.334Z,29.31
2023-04-06T09:00:01.994Z,32.17
2023-04-06T09:15:01.651Z,31.14
2023-04-06T09:30:02.348Z,31.29
2023-04-06T09:45:01.958Z,32.23
2023-04-06T10:00:01.599Z,31.07
2023-04-06T10:15:02.263Z,31.56
2023-04-06T10:30:01.951Z,32.8
2023-04-06T10:45:01.600Z,33.04
2023-04-06T11:00:02.311Z,32.58
2023-04-06T11:15:01.961Z,32.39
2023-04-06T11:30:01.731Z,32.73
2023-04-06T11:45:01.418Z,32.75
2023-04-06T12:00:02.029Z,32.65
2023-04-06T12:15:01.622Z,35.27
2023-04-06T12:30:01.302Z,33.77
2023-04-06T12:45:01.974Z,31.78
2023-04-06T13:00:01.941Z,28.05
2023-04-06T13:15:01.681Z,25.71
2023-04-06T13:30:02.341Z,29.07
2023-04-06T13:45:02.036Z,28
2023-04-06T14:00:02.953Z,27.81
2023-04-06T14:15:01.890Z,26.58
2023-04-06T14:30:01.542Z,27.37
2023-04-06T14:45:02.213Z,26.06
2023-04-06T15:00:01.857Z,24.94
2023-04-06T15:15:01.502Z,24.42
2023-04-06T15:30:02.153Z,23.3
2023-04-06T15:45:01.836Z,21.98
2023-04-06T16:00:01.601Z,21.4
2023-04-06T16:15:02.310Z,20.69
2023-04-06T16:45:01.705Z,19.35
2023-04-06T17:00:02.368Z,19.29
2023-04-06T17:15:02.045Z,18.79
2023-04-06T17:30:01.714Z,18.17
2023-04-06T17:45:02.360Z,17.37
2023-04-06T18:00:02.046Z,16.78
2023-04-06T18:15:01.716Z,16.23
2023-04-06T18:30:01.402Z,16.28
2023-04-06T18:45:02.030Z,15.97
2023-04-06T19:00:01.721Z,15.69
2023-04-06T19:15:01.425Z,15.89
2023-04-06T19:30:02.106Z,15.64
2023-04-06T19:45:01.775Z,15.18
2023-04-06T20:00:01.447Z,14.45
2023-04-06T20:15:02.133Z,13.86
2023-04-06T20:30:01.873Z,13.19
2023-04-06T20:45:01.548Z,12.82
2023-04-06T21:00:02.477Z,12.73
2023-04-06T21:15:02.261Z,12.63
2023-04-06T21:30:02.059Z,12.5
2023-04-06T21:45:01.793Z,12.55
2023-04-06T22:00:02.470Z,12.59
2023-04-06T22:15:02.173Z,12.7
2023-04-06T22:30:01.911Z,12.68
2023-04-06T22:45:01.693Z,12.61
2023-04-06T23:00:01.890Z,12.32
2023-04-06T23:15:01.612Z,12.09
2023-04-06T23:30:02.310Z,12.27
2023-04-06T23:45:01.980Z,12.06
